sensor_id;sensor_type;location;lat;lon;timestamp;P1;durP1;ratioP1;P2;durP2;ratioP2
25980;SDS011;13772;52.996;9.124;2022-11-04T08:13:19;5.20;;;4.13;;
25980;SDS011;13772;52.996;9.124;2022-11-04T08:15:44;8.80;;;5.05;;
25980;SDS011;13772;52.996;9.124;2022-11-04T08:18:09;6.47;;;5.10;;
25980;SDS011;13772;52.996;9.124;2022-11-04T08:20:35;6.35;;;5.25;;
25980;SDS011;13772;52.996;9.124;2022-11-04T08:23:00;7.55;;;5.70;;
25980;SDS011;13772;52.996;9.124;2022-11-04T08:25:25;7.85;;;5.25;;
25980;SDS011;13772;52.996;9.124;2022-11-04T08:27:51;9.35;;;6.05;;
25980;SDS011;13772;52.996;9.124;2022-11-04T08:30:16;5.65;;;4.93;;
25980;SDS011;13772;52.996;9.124;2022-11-04T08:32:41;7.75;;;5.50;;
25980;SDS011;13772;52.996;9.124;2022-11-04T08:35:08;6.13;;;5.45;;
25980;SDS011;13772;52.996;9.124;2022-11-04T08:37:33;6.40;;;5.05;;
25980;SDS011;13772;52.996;9.124;2022-11-04T08:39:59;6.50;;;5.10;;
25980;SDS011;13772;52.996;9.124;2022-11-04T08:42:24;7.47;;;5.57;;
25980;SDS011;13772;52.996;9.124;2022-11-04T08:44:50;7.55;;;5.32;;
25980;SDS011;13772;52.996;9.124;2022-11-04T08:47:16;8.18;;;5.95;;
25980;SDS011;13772;52.996;9.124;2022-11-04T08:49:41;9.73;;;6.63;;
25980;SDS011;13772;52.996;9.124;2022-11-04T08:52:06;8.43;;;6.47;;
25980;SDS011;13772;52.996;9.124;2022-11-04T08:54:34;8.40;;;6.13;;
25980;SDS011;13772;52.996;9.124;2022-11-04T08:56:59;10.27;;;6.95;;
25980;SDS011;13772;52.996;9.124;2022-11-04T08:59:25;9.68;;;6.35;;
25980;SDS011;13772;52.996;9.124;2022-11-04T09:01:50;7.45;;;6.47;;
25980;SDS011;13772;52.996;9.124;2022-11-04T09:04:15;7.78;;;5.65;;
25980;SDS011;13772;52.996;9.124;2022-11-04T09:06:42;9.77;;;6.80;;
25980;SDS011;13772;52.996;9.124;2022-11-04T09:09:08;8.13;;;6.10;;
25980;SDS011;13772;52.996;9.124;2022-11-04T09:11:36;7.35;;;6.10;;
25980;SDS011;13772;52.996;9.124;2022-11-04T09:14:01;7.22;;;5.63;;
25980;SDS011;13772;52.996;9.124;2022-11-04T09:16:30;8.48;;;5.68;;
25980;SDS011;13772;52.996;9.124;2022-11-04T09:18:56;10.38;;;5.93;;
25980;SDS011;13772;52.996;9.124;2022-11-04T09:21:21;7.10;;;5.30;;
25980;SDS011;13772;52.996;9.124;2022-11-04T09:23:47;8.70;;;4.97;;
25980;SDS011;13772;52.996;9.124;2022-11-04T09:26:13;6.45;;;5.10;;
25980;SDS011;13772;52.996;9.124;2022-11-04T09:28:39;7.60;;;5.20;;
25980;SDS011;13772;52.996;9.124;2022-11-04T09:31:08;6.60;;;4.93;;
25980;SDS011;13772;52.996;9.124;2022-11-04T09:33:34;5.32;;;4.00;;
25980;SDS011;13772;52.996;9.124;2022-11-04T09:35:59;6.07;;;4.10;;
25980;SDS011;13772;52.996;9.124;2022-11-04T09:38:24;6.93;;;4.18;;
25980;SDS011;13772;52.996;9.124;2022-11-04T09:40:50;6.28;;;3.70;;
25980;SDS011;13772;52.996;9.124;2022-11-04T09:45:43;5.80;;;3.47;;
25980;SDS011;13772;52.996;9.124;2022-11-04T09:48:23;5.10;;;3.70;;
25980;SDS011;13772;52.996;9.124;2022-11-04T09:50:51;4.85;;;3.10;;
25980;SDS011;13772;52.996;9.124;2022-11-04T09:56:41;4.78;;;3.17;;
25980;SDS011;13772;52.996;9.124;2022-11-04T09:58:46;5.75;;;3.70;;
25980;SDS011;13772;52.996;9.124;2022-11-04T10:06:28;5.82;;;3.78;;
25980;SDS011;13772;52.996;9.124;2022-11-04T10:09:00;5.05;;;3.58;;
25980;SDS011;13772;52.996;9.124;2022-11-04T10:13:59;6.35;;;4.00;;
25980;SDS011;13772;52.996;9.124;2022-11-04T10:19:23;6.75;;;4.10;;
25980;SDS011;13772;52.996;9.124;2022-11-04T10:24:35;8.07;;;5.13;;
25980;SDS011;13772;52.996;9.124;2022-11-04T10:27:03;6.13;;;4.57;;
25980;SDS011;13772;52.996;9.124;2022-11-04T10:29:34;7.40;;;4.32;;
25980;SDS011;13772;52.996;9.124;2022-11-04T10:32:02;6.95;;;4.53;;
25980;SDS011;13772;52.996;9.124;2022-11-04T10:34:34;6.10;;;4.35;;
25980;SDS011;13772;52.996;9.124;2022-11-04T10:37:00;6.25;;;4.47;;
25980;SDS011;13772;52.996;9.124;2022-11-04T10:39:29;6.93;;;4.25;;
25980;SDS011;13772;52.996;9.124;2022-11-04T10:41:55;7.03;;;4.90;;
25980;SDS011;13772;52.996;9.124;2022-11-04T10:44:29;6.50;;;4.50;;
25980;SDS011;13772;52.996;9.124;2022-11-04T10:50:00;6.57;;;4.03;;
25980;SDS011;13772;52.996;9.124;2022-11-04T10:52:31;7.75;;;4.30;;
25980;SDS011;13772;52.996;9.124;2022-11-04T10:54:56;6.30;;;3.88;;
25980;SDS011;13772;52.996;9.124;2022-11-04T10:57:25;7.10;;;4.00;;
25980;SDS011;13772;52.996;9.124;2022-11-04T11:02:15;6.78;;;4.47;;
25980;SDS011;13772;52.996;9.124;2022-11-04T11:04:41;6.47;;;4.53;;
25980;SDS011;13772;52.996;9.124;2022-11-04T11:07:10;6.13;;;4.20;;
25980;SDS011;13772;52.996;9.124;2022-11-04T11:14:36;7.57;;;4.05;;
25980;SDS011;13772;52.996;9.124;2022-11-04T11:19:49;9.38;;;4.45;;
25980;SDS011;13772;52.996;9.124;2022-11-04T11:22:33;5.97;;;4.13;;
25980;SDS011;13772;52.996;9.124;2022-11-04T11:25:32;4.53;;;3.22;;
25980;SDS011;13772;52.996;9.124;2022-11-04T11:27:51;5.25;;;3.78;;
25980;SDS011;13772;52.996;9.124;2022-11-04T11:30:18;6.90;;;4.05;;
25980;SDS011;13772;52.996;9.124;2022-11-04T11:32:44;6.55;;;4.43;;
25980;SDS011;13772;52.996;9.124;2022-11-04T11:35:15;7.25;;;4.80;;
25980;SDS011;13772;52.996;9.124;2022-11-04T11:37:42;6.25;;;4.28;;
25980;SDS011;13772;52.996;9.124;2022-11-04T11:40:31;5.43;;;4.10;;
25980;SDS011;13772;52.996;9.124;2022-11-04T11:42:56;6.18;;;4.75;;
25980;SDS011;13772;52.996;9.124;2022-11-04T11:45:22;6.82;;;5.38;;
25980;SDS011;13772;52.996;9.124;2022-11-04T11:47:47;7.72;;;5.75;;
25980;SDS011;13772;52.996;9.124;2022-11-04T11:50:20;7.68;;;5.28;;
25980;SDS011;13772;52.996;9.124;2022-11-04T11:52:48;7.10;;;5.45;;
25980;SDS011;13772;52.996;9.124;2022-11-04T12:00:29;9.10;;;5.50;;
25980;SDS011;13772;52.996;9.124;2022-11-04T12:05:32;7.22;;;5.15;;
25980;SDS011;13772;52.996;9.124;2022-11-04T12:13:01;8.90;;;6.75;;
25980;SDS011;13772;52.996;9.124;2022-11-04T12:20:36;8.80;;;5.90;;
25980;SDS011;13772;52.996;9.124;2022-11-04T12:28:13;9.02;;;6.40;;
25980;SDS011;13772;52.996;9.124;2022-11-04T12:30:56;8.77;;;5.93;;
25980;SDS011;13772;52.996;9.124;2022-11-04T12:33:46;9.73;;;5.22;;
25980;SDS011;13772;52.996;9.124;2022-11-04T12:39:10;9.52;;;5.50;;
25980;SDS011;13772;52.996;9.124;2022-11-04T12:42:16;8.07;;;5.32;;
25980;SDS011;13772;52.996;9.124;2022-11-04T12:44:37;8.98;;;5.03;;
25980;SDS011;13772;52.996;9.124;2022-11-04T12:54:42;6.65;;;4.75;;
25980;SDS011;13772;52.996;9.124;2022-11-04T12:59:58;9.55;;;5.28;;
25980;SDS011;13772;52.996;9.124;2022-11-04T13:07:48;7.65;;;4.90;;
25980;SDS011;13772;52.996;9.124;2022-11-04T13:10:17;7.65;;;5.55;;
25980;SDS011;13772;52.996;9.124;2022-11-04T13:12:43;6.65;;;5.63;;
25980;SDS011;13772;52.996;9.124;2022-11-04T13:15:16;9.90;;;5.70;;
25980;SDS011;13772;52.996;9.124;2022-11-04T13:17:42;10.15;;;6.07;;
25980;SDS011;13772;52.996;9.124;2022-11-04T13:22:38;9.27;;;4.75;;
25980;SDS011;13772;52.996;9.124;2022-11-04T13:25:08;6.00;;;4.28;;
25980;SDS011;13772;52.996;9.124;2022-11-04T13:27:38;7.50;;;3.90;;
25980;SDS011;13772;52.996;9.124;2022-11-04T13:32:44;5.95;;;3.95;;
25980;SDS011;13772;52.996;9.124;2022-11-04T13:35:27;5.57;;;4.15;;
25980;SDS011;13772;52.996;9.124;2022-11-04T13:38:01;9.27;;;4.25;;
25980;SDS011;13772;52.996;9.124;2022-11-04T13:43:15;7.00;;;4.25;;
25980;SDS011;13772;52.996;9.124;2022-11-04T13:46:01;5.43;;;3.58;;
25980;SDS011;13772;52.996;9.124;2022-11-04T13:48:28;4.68;;;3.20;;
25980;SDS011;13772;52.996;9.124;2022-11-04T13:50:55;3.65;;;2.47;;
25980;SDS011;13772;52.996;9.124;2022-11-04T13:53:21;5.20;;;2.38;;
25980;SDS011;13772;52.996;9.124;2022-11-04T13:56:03;4.35;;;2.40;;
25980;SDS011;13772;52.996;9.124;2022-11-04T13:58:29;5.95;;;3.10;;
25980;SDS011;13772;52.996;9.124;2022-11-04T14:01:39;4.15;;;2.58;;
25980;SDS011;13772;52.996;9.124;2022-11-04T14:03:49;5.40;;;3.22;;
25980;SDS011;13772;52.996;9.124;2022-11-04T14:06:15;6.30;;;3.00;;
25980;SDS011;13772;52.996;9.124;2022-11-04T14:09:22;4.75;;;2.97;;
25980;SDS011;13772;52.996;9.124;2022-11-04T14:11:26;6.00;;;3.10;;
25980;SDS011;13772;52.996;9.124;2022-11-04T14:14:01;5.10;;;3.13;;
25980;SDS011;13772;52.996;9.124;2022-11-04T14:18:52;4.15;;;2.95;;
25980;SDS011;13772;52.996;9.124;2022-11-04T14:23:48;6.20;;;1.77;;
25980;SDS011;13772;52.996;9.124;2022-11-04T14:26:14;8.70;;;1.80;;
25980;SDS011;13772;52.996;9.124;2022-11-04T14:28:42;6.95;;;1.60;;
25980;SDS011;13772;52.996;9.124;2022-11-04T14:31:08;3.20;;;1.20;;
25980;SDS011;13772;52.996;9.124;2022-11-04T14:33:50;3.67;;;1.40;;
25980;SDS011;13772;52.996;9.124;2022-11-04T14:46:39;4.68;;;1.55;;
25980;SDS011;13772;52.996;9.124;2022-11-04T14:49:05;5.10;;;1.10;;
25980;SDS011;13772;52.996;9.124;2022-11-04T14:51:32;5.72;;;1.35;;
25980;SDS011;13772;52.996;9.124;2022-11-04T14:54:01;7.93;;;1.75;;
25980;SDS011;13772;52.996;9.124;2022-11-04T15:01:21;5.50;;;1.63;;
25980;SDS011;13772;52.996;9.124;2022-11-04T15:03:47;4.13;;;1.40;;
25980;SDS011;13772;52.996;9.124;2022-11-04T15:06:12;6.28;;;1.73;;
25980;SDS011;13772;52.996;9.124;2022-11-04T15:08:46;7.32;;;3.30;;
25980;SDS011;13772;52.996;9.124;2022-11-04T15:11:13;6.45;;;1.42;;
25980;SDS011;13772;52.996;9.124;2022-11-04T15:16:14;6.63;;;1.60;;
25980;SDS011;13772;52.996;9.124;2022-11-04T15:18:40;4.55;;;1.73;;
25980;SDS011;13772;52.996;9.124;2022-11-04T15:21:06;5.90;;;1.20;;
25980;SDS011;13772;52.996;9.124;2022-11-04T15:23:45;4.75;;;1.30;;
25980;SDS011;13772;52.996;9.124;2022-11-04T15:26:30;5.47;;;1.50;;
25980;SDS011;13772;52.996;9.124;2022-11-04T15:28:59;5.10;;;1.60;;
25980;SDS011;13772;52.996;9.124;2022-11-04T15:31:29;3.55;;;1.50;;
25980;SDS011;13772;52.996;9.124;2022-11-04T15:33:56;4.95;;;1.48;;
25980;SDS011;13772;52.996;9.124;2022-11-04T15:41:19;4.85;;;1.95;;
25980;SDS011;13772;52.996;9.124;2022-11-04T15:44:05;4.75;;;2.00;;
25980;SDS011;13772;52.996;9.124;2022-11-04T15:46:31;6.72;;;2.38;;
25980;SDS011;13772;52.996;9.124;2022-11-04T15:49:00;5.80;;;2.15;;
25980;SDS011;13772;52.996;9.124;2022-11-04T15:51:26;8.27;;;2.65;;
25980;SDS011;13772;52.996;9.124;2022-11-04T15:53:52;5.70;;;2.20;;
25980;SDS011;13772;52.996;9.124;2022-11-04T15:56:21;7.18;;;2.15;;
25980;SDS011;13772;52.996;9.124;2022-11-04T15:58:47;6.63;;;2.38;;
25980;SDS011;13772;52.996;9.124;2022-11-04T16:01:13;6.68;;;2.10;;
25980;SDS011;13772;52.996;9.124;2022-11-04T16:03:39;5.82;;;2.22;;
25980;SDS011;13772;52.996;9.124;2022-11-04T16:06:05;7.45;;;2.67;;
25980;SDS011;13772;52.996;9.124;2022-11-04T16:08:31;3.95;;;1.80;;
25980;SDS011;13772;52.996;9.124;2022-11-04T16:11:11;8.35;;;2.38;;
25980;SDS011;13772;52.996;9.124;2022-11-04T16:13:37;6.25;;;2.25;;
25980;SDS011;13772;52.996;9.124;2022-11-04T16:20:58;4.78;;;2.00;;
25980;SDS011;13772;52.996;9.124;2022-11-04T16:23:26;8.45;;;2.67;;
25980;SDS011;13772;52.996;9.124;2022-11-04T16:26:03;7.43;;;2.38;;
25980;SDS011;13772;52.996;9.124;2022-11-04T16:28:32;8.00;;;2.53;;
25980;SDS011;13772;52.996;9.124;2022-11-04T16:31:00;6.70;;;2.50;;
25980;SDS011;13772;52.996;9.124;2022-11-04T16:33:25;7.00;;;2.50;;
25980;SDS011;13772;52.996;9.124;2022-11-04T16:35:51;5.80;;;2.80;;
25980;SDS011;13772;52.996;9.124;2022-11-04T16:38:16;6.63;;;3.33;;
25980;SDS011;13772;52.996;9.124;2022-11-04T16:40:42;6.28;;;2.75;;
25980;SDS011;13772;52.996;9.124;2022-11-04T16:43:08;6.50;;;3.05;;
25980;SDS011;13772;52.996;9.124;2022-11-04T16:45:35;8.05;;;2.80;;
25980;SDS011;13772;52.996;9.124;2022-11-04T16:48:01;7.53;;;3.08;;
25980;SDS011;13772;52.996;9.124;2022-11-04T16:50:26;8.05;;;2.67;;
25980;SDS011;13772;52.996;9.124;2022-11-04T16:52:52;8.05;;;2.33;;
25980;SDS011;13772;52.996;9.124;2022-11-04T16:55:18;8.43;;;2.83;;
25980;SDS011;13772;52.996;9.124;2022-11-04T16:57:44;8.00;;;2.67;;
25980;SDS011;13772;52.996;9.124;2022-11-04T17:00:16;7.93;;;3.03;;
25980;SDS011;13772;52.996;9.124;2022-11-04T17:02:42;8.95;;;3.28;;
25980;SDS011;13772;52.996;9.124;2022-11-04T17:05:07;8.35;;;3.92;;
25980;SDS011;13772;52.996;9.124;2022-11-04T17:07:35;9.50;;;4.60;;
25980;SDS011;13772;52.996;9.124;2022-11-04T17:10:03;10.18;;;3.97;;
25980;SDS011;13772;52.996;9.124;2022-11-04T17:12:28;9.10;;;3.78;;
25980;SDS011;13772;52.996;9.124;2022-11-04T17:14:53;7.78;;;3.30;;
25980;SDS011;13772;52.996;9.124;2022-11-04T17:17:19;8.35;;;3.33;;
25980;SDS011;13772;52.996;9.124;2022-11-04T17:19:44;7.65;;;3.30;;
25980;SDS011;13772;52.996;9.124;2022-11-04T17:22:09;7.32;;;3.22;;
25980;SDS011;13772;52.996;9.124;2022-11-04T17:24:35;4.93;;;2.67;;
25980;SDS011;13772;52.996;9.124;2022-11-04T17:27:01;9.43;;;2.88;;
25980;SDS011;13772;52.996;9.124;2022-11-04T17:29:26;8.10;;;3.38;;
25980;SDS011;13772;52.996;9.124;2022-11-04T17:31:53;12.13;;;3.28;;
25980;SDS011;13772;52.996;9.124;2022-11-04T17:34:19;6.85;;;2.83;;
25980;SDS011;13772;52.996;9.124;2022-11-04T17:36:47;7.22;;;3.75;;
25980;SDS011;13772;52.996;9.124;2022-11-04T17:39:13;9.77;;;3.78;;
25980;SDS011;13772;52.996;9.124;2022-11-04T17:41:38;13.25;;;4.40;;
25980;SDS011;13772;52.996;9.124;2022-11-04T17:44:21;7.88;;;4.20;;
25980;SDS011;13772;52.996;9.124;2022-11-04T17:46:47;9.43;;;4.65;;
25980;SDS011;13772;52.996;9.124;2022-11-04T17:49:16;7.55;;;3.85;;
25980;SDS011;13772;52.996;9.124;2022-11-04T17:51:42;8.45;;;4.75;;
25980;SDS011;13772;52.996;9.124;2022-11-04T17:54:08;10.90;;;4.55;;
25980;SDS011;13772;52.996;9.124;2022-11-04T17:56:34;8.35;;;5.10;;
25980;SDS011;13772;52.996;9.124;2022-11-04T17:58:59;10.15;;;5.63;;
25980;SDS011;13772;52.996;9.124;2022-11-04T18:01:25;8.45;;;5.03;;
25980;SDS011;13772;52.996;9.124;2022-11-04T18:03:51;9.25;;;5.35;;
25980;SDS011;13772;52.996;9.124;2022-11-04T18:06:17;10.50;;;5.25;;
25980;SDS011;13772;52.996;9.124;2022-11-04T18:08:43;7.38;;;4.70;;
25980;SDS011;13772;52.996;9.124;2022-11-04T18:11:09;14.05;;;4.97;;
25980;SDS011;13772;52.996;9.124;2022-11-04T18:13:34;9.13;;;3.95;;
25980;SDS011;13772;52.996;9.124;2022-11-04T18:16:12;9.07;;;4.25;;
25980;SDS011;13772;52.996;9.124;2022-11-04T18:18:38;6.05;;;3.35;;
25980;SDS011;13772;52.996;9.124;2022-11-04T18:21:03;9.18;;;4.03;;
25980;SDS011;13772;52.996;9.124;2022-11-04T18:23:29;8.88;;;4.35;;
25980;SDS011;13772;52.996;9.124;2022-11-04T18:25:54;7.38;;;4.72;;
25980;SDS011;13772;52.996;9.124;2022-11-04T18:28:19;9.93;;;4.90;;
25980;SDS011;13772;52.996;9.124;2022-11-04T18:30:45;8.48;;;4.85;;
25980;SDS011;13772;52.996;9.124;2022-11-04T18:33:10;12.80;;;5.82;;
25980;SDS011;13772;52.996;9.124;2022-11-04T18:35:35;10.80;;;5.57;;
25980;SDS011;13772;52.996;9.124;2022-11-04T18:38:00;12.25;;;5.38;;
25980;SDS011;13772;52.996;9.124;2022-11-04T18:40:26;10.52;;;5.05;;
25980;SDS011;13772;52.996;9.124;2022-11-04T18:42:51;9.63;;;4.80;;
25980;SDS011;13772;52.996;9.124;2022-11-04T18:45:17;9.60;;;4.53;;
25980;SDS011;13772;52.996;9.124;2022-11-04T18:47:45;6.68;;;3.75;;
25980;SDS011;13772;52.996;9.124;2022-11-04T18:50:10;8.43;;;4.75;;
25980;SDS011;13772;52.996;9.124;2022-11-04T18:52:35;9.38;;;4.18;;
25980;SDS011;13772;52.996;9.124;2022-11-04T18:55:01;8.35;;;4.50;;
25980;SDS011;13772;52.996;9.124;2022-11-04T18:57:26;10.48;;;5.88;;
25980;SDS011;13772;52.996;9.124;2022-11-04T18:59:51;7.85;;;4.90;;
25980;SDS011;13772;52.996;9.124;2022-11-04T19:02:19;8.02;;;4.90;;
25980;SDS011;13772;52.996;9.124;2022-11-04T19:04:44;11.18;;;4.03;;
25980;SDS011;13772;52.996;9.124;2022-11-04T19:07:10;8.35;;;3.90;;
25980;SDS011;13772;52.996;9.124;2022-11-04T19:09:35;8.85;;;4.15;;
25980;SDS011;13772;52.996;9.124;2022-11-04T19:12:00;9.40;;;4.28;;
25980;SDS011;13772;52.996;9.124;2022-11-04T19:14:44;8.93;;;4.13;;
25980;SDS011;13772;52.996;9.124;2022-11-04T19:17:10;8.63;;;4.70;;
25980;SDS011;13772;52.996;9.124;2022-11-04T19:19:35;8.00;;;4.60;;
25980;SDS011;13772;52.996;9.124;2022-11-04T19:22:00;11.70;;;4.90;;
25980;SDS011;13772;52.996;9.124;2022-11-04T19:24:26;9.65;;;3.42;;
25980;SDS011;13772;52.996;9.124;2022-11-04T19:26:52;9.80;;;3.95;;
25980;SDS011;13772;52.996;9.124;2022-11-04T19:29:18;12.63;;;4.05;;
25980;SDS011;13772;52.996;9.124;2022-11-04T19:31:43;8.10;;;3.35;;
25980;SDS011;13772;52.996;9.124;2022-11-04T19:34:09;11.93;;;3.78;;
25980;SDS011;13772;52.996;9.124;2022-11-04T19:36:34;6.45;;;3.72;;
25980;SDS011;13772;52.996;9.124;2022-11-04T19:39:01;8.43;;;3.92;;
25980;SDS011;13772;52.996;9.124;2022-11-04T19:41:27;6.90;;;4.03;;
25980;SDS011;13772;52.996;9.124;2022-11-04T19:44:12;9.38;;;4.10;;
25980;SDS011;13772;52.996;9.124;2022-11-04T19:46:37;10.15;;;3.80;;
25980;SDS011;13772;52.996;9.124;2022-11-04T19:49:03;7.65;;;4.13;;
25980;SDS011;13772;52.996;9.124;2022-11-04T19:51:28;7.85;;;4.05;;
25980;SDS011;13772;52.996;9.124;2022-11-04T19:53:54;9.93;;;4.97;;
25980;SDS011;13772;52.996;9.124;2022-11-04T19:56:20;8.80;;;4.15;;
25980;SDS011;13772;52.996;9.124;2022-11-04T19:58:45;6.82;;;4.15;;
25980;SDS011;13772;52.996;9.124;2022-11-04T20:01:11;8.20;;;4.78;;
25980;SDS011;13772;52.996;9.124;2022-11-04T20:03:37;9.07;;;4.70;;
25980;SDS011;13772;52.996;9.124;2022-11-04T20:06:02;9.52;;;5.80;;
25980;SDS011;13772;52.996;9.124;2022-11-04T20:08:28;9.57;;;5.90;;
25980;SDS011;13772;52.996;9.124;2022-11-04T20:10:53;10.43;;;5.28;;
25980;SDS011;13772;52.996;9.124;2022-11-04T20:13:19;13.15;;;5.15;;
25980;SDS011;13772;52.996;9.124;2022-11-04T20:16:10;9.95;;;5.70;;
25980;SDS011;13772;52.996;9.124;2022-11-04T20:18:36;9.70;;;6.03;;
25980;SDS011;13772;52.996;9.124;2022-11-04T20:21:02;10.35;;;5.90;;
25980;SDS011;13772;52.996;9.124;2022-11-04T20:23:27;10.48;;;5.30;;
25980;SDS011;13772;52.996;9.124;2022-11-04T20:25:52;10.98;;;5.68;;
25980;SDS011;13772;52.996;9.124;2022-11-04T20:28:17;12.65;;;6.07;;
25980;SDS011;13772;52.996;9.124;2022-11-04T20:30:43;11.90;;;6.38;;
25980;SDS011;13772;52.996;9.124;2022-11-04T20:33:08;10.52;;;5.20;;
25980;SDS011;13772;52.996;9.124;2022-11-04T20:35:33;9.50;;;5.43;;
25980;SDS011;13772;52.996;9.124;2022-11-04T20:37:59;12.48;;;5.60;;
25980;SDS011;13772;52.996;9.124;2022-11-04T20:40:24;8.70;;;4.60;;
25980;SDS011;13772;52.996;9.124;2022-11-04T20:42:49;9.82;;;4.30;;
25980;SDS011;13772;52.996;9.124;2022-11-04T20:45:15;11.10;;;4.45;;
25980;SDS011;13772;52.996;9.124;2022-11-04T20:47:41;12.20;;;4.80;;
25980;SDS011;13772;52.996;9.124;2022-11-04T20:50:07;7.35;;;3.70;;
25980;SDS011;13772;52.996;9.124;2022-11-04T20:52:33;8.07;;;4.00;;
25980;SDS011;13772;52.996;9.124;2022-11-04T20:54:58;6.80;;;4.07;;
25980;SDS011;13772;52.996;9.124;2022-11-04T20:57:23;9.30;;;4.53;;
25980;SDS011;13772;52.996;9.124;2022-11-04T20:59:48;10.35;;;5.18;;
25980;SDS011;13772;52.996;9.124;2022-11-04T21:02:14;12.43;;;5.40;;
25980;SDS011;13772;52.996;9.124;2022-11-04T21:04:39;10.25;;;5.18;;
25980;SDS011;13772;52.996;9.124;2022-11-04T21:07:04;9.75;;;4.38;;
25980;SDS011;13772;52.996;9.124;2022-11-04T21:09:31;12.90;;;5.15;;
25980;SDS011;13772;52.996;9.124;2022-11-04T21:11:56;10.23;;;4.30;;
25980;SDS011;13772;52.996;9.124;2022-11-04T21:14:22;12.05;;;4.43;;
25980;SDS011;13772;52.996;9.124;2022-11-04T21:16:47;10.13;;;4.70;;
25980;SDS011;13772;52.996;9.124;2022-11-04T21:19:12;12.00;;;6.30;;
25980;SDS011;13772;52.996;9.124;2022-11-04T21:21:40;11.45;;;5.00;;
25980;SDS011;13772;52.996;9.124;2022-11-04T21:24:06;9.00;;;4.95;;
25980;SDS011;13772;52.996;9.124;2022-11-04T21:26:32;9.90;;;5.18;;
25980;SDS011;13772;52.996;9.124;2022-11-04T21:28:59;10.13;;;5.65;;
25980;SDS011;13772;52.996;9.124;2022-11-04T21:31:28;9.60;;;5.32;;
25980;SDS011;13772;52.996;9.124;2022-11-04T21:33:53;11.00;;;4.50;;
25980;SDS011;13772;52.996;9.124;2022-11-04T21:36:19;8.38;;;5.47;;
25980;SDS011;13772;52.996;9.124;2022-11-04T21:38:44;11.20;;;5.50;;
25980;SDS011;13772;52.996;9.124;2022-11-04T21:41:11;8.88;;;5.65;;
25980;SDS011;13772;52.996;9.124;2022-11-04T21:43:36;9.20;;;5.90;;
25980;SDS011;13772;52.996;9.124;2022-11-04T21:46:02;7.53;;;5.10;;
25980;SDS011;13772;52.996;9.124;2022-11-04T21:48:29;10.50;;;5.50;;
25980;SDS011;13772;52.996;9.124;2022-11-04T21:50:54;7.47;;;4.88;;
25980;SDS011;13772;52.996;9.124;2022-11-04T21:53:19;11.70;;;5.43;;
25980;SDS011;13772;52.996;9.124;2022-11-04T21:55:44;8.32;;;5.13;;
25980;SDS011;13772;52.996;9.124;2022-11-04T21:58:10;10.32;;;5.20;;
25980;SDS011;13772;52.996;9.124;2022-11-04T22:00:35;8.00;;;5.40;;
25980;SDS011;13772;52.996;9.124;2022-11-04T22:03:00;9.02;;;5.25;;
25980;SDS011;13772;52.996;9.124;2022-11-04T22:05:26;8.30;;;5.55;;
25980;SDS011;13772;52.996;9.124;2022-11-04T22:07:51;12.60;;;5.85;;
25980;SDS011;13772;52.996;9.124;2022-11-04T22:10:35;13.35;;;6.45;;
25980;SDS011;13772;52.996;9.124;2022-11-04T22:13:00;11.25;;;6.05;;
25980;SDS011;13772;52.996;9.124;2022-11-04T22:15:25;9.93;;;6.30;;
25980;SDS011;13772;52.996;9.124;2022-11-04T22:18:09;12.27;;;7.32;;
25980;SDS011;13772;52.996;9.124;2022-11-04T22:20:35;13.50;;;6.85;;
25980;SDS011;13772;52.996;9.124;2022-11-04T22:23:00;15.77;;;7.28;;
25980;SDS011;13772;52.996;9.124;2022-11-04T22:25:25;15.95;;;7.50;;
25980;SDS011;13772;52.996;9.124;2022-11-04T22:27:51;13.48;;;7.85;;
25980;SDS011;13772;52.996;9.124;2022-11-04T22:30:16;15.23;;;7.53;;
25980;SDS011;13772;52.996;9.124;2022-11-04T22:32:42;16.52;;;7.60;;
25980;SDS011;13772;52.996;9.124;2022-11-04T22:35:07;17.45;;;7.55;;
25980;SDS011;13772;52.996;9.124;2022-11-04T22:37:32;14.95;;;8.13;;
25980;SDS011;13772;52.996;9.124;2022-11-04T22:39:58;12.82;;;6.93;;
25980;SDS011;13772;52.996;9.124;2022-11-04T22:42:23;14.48;;;6.82;;
25980;SDS011;13772;52.996;9.124;2022-11-04T22:44:48;15.32;;;6.78;;
25980;SDS011;13772;52.996;9.124;2022-11-04T22:47:13;14.32;;;6.72;;
25980;SDS011;13772;52.996;9.124;2022-11-04T22:49:39;18.45;;;8.05;;
25980;SDS011;13772;52.996;9.124;2022-11-04T22:52:04;15.07;;;8.00;;
25980;SDS011;13772;52.996;9.124;2022-11-04T22:54:29;13.27;;;8.27;;
25980;SDS011;13772;52.996;9.124;2022-11-04T22:56:54;14.88;;;7.35;;
25980;SDS011;13772;52.996;9.124;2022-11-04T22:59:20;14.90;;;8.07;;
25980;SDS011;13772;52.996;9.124;2022-11-04T23:01:45;17.58;;;8.13;;
25980;SDS011;13772;52.996;9.124;2022-11-04T23:04:10;15.80;;;7.90;;
25980;SDS011;13772;52.996;9.124;2022-11-04T23:06:36;15.85;;;7.65;;
25980;SDS011;13772;52.996;9.124;2022-11-04T23:09:02;21.52;;;8.45;;
25980;SDS011;13772;52.996;9.124;2022-11-04T23:11:28;19.35;;;8.15;;
